地図

経路データ

SID SEASON NUMBER BASIN SUBBASIN NAME ISO_TIME NATURE LAT LON WMO_WIND WMO_PRES WMO_AGENCY TRACK_TYPE DIST2LAND LANDFALL IFLAG USA_AGENCY USA_ATCF_ID USA_LAT USA_LON USA_RECORD USA_STATUS USA_WIND USA_PRES USA_SSHS USA_R34_NE USA_R34_SE USA_R34_SW USA_R34_NW USA_R50_NE USA_R50_SE USA_R50_SW USA_R50_NW USA_R64_NE USA_R64_SE USA_R64_SW USA_R64_NW USA_POCI USA_ROCI USA_RMW USA_EYE TOKYO_LAT TOKYO_LON TOKYO_GRADE TOKYO_WIND TOKYO_PRES TOKYO_R50_DIR TOKYO_R50_LONG TOKYO_R50_SHORT TOKYO_R30_DIR TOKYO_R30_LONG TOKYO_R30_SHORT TOKYO_LAND CMA_LAT CMA_LON CMA_CAT CMA_WIND CMA_PRES HKO_LAT HKO_LON HKO_CAT HKO_WIND HKO_PRES NEWDELHI_LAT NEWDELHI_LON NEWDELHI_GRADE NEWDELHI_WIND NEWDELHI_PRES NEWDELHI_CI NEWDELHI_DP NEWDELHI_POCI REUNION_LAT REUNION_LON REUNION_TYPE REUNION_WIND REUNION_PRES REUNION_TNUM REUNION_CI REUNION_RMW REUNION_R34_NE REUNION_R34_SE REUNION_R34_SW REUNION_R34_NW REUNION_R50_NE REUNION_R50_SE REUNION_R50_SW REUNION_R50_NW REUNION_R64_NE REUNION_R64_SE REUNION_R64_SW REUNION_R64_NW BOM_LAT BOM_LON BOM_TYPE BOM_WIND BOM_PRES BOM_TNUM BOM_CI BOM_RMW BOM_R34_NE BOM_R34_SE BOM_R34_SW BOM_R34_NW BOM_R50_NE BOM_R50_SE BOM_R50_SW BOM_R50_NW BOM_R64_NE BOM_R64_SE BOM_R64_SW BOM_R64_NW BOM_ROCI BOM_POCI BOM_EYE BOM_POS_METHOD BOM_PRES_METHOD NADI_LAT NADI_LON NADI_CAT NADI_WIND NADI_PRES WELLINGTON_LAT WELLINGTON_LON WELLINGTON_WIND WELLINGTON_PRES DS824_LAT DS824_LON DS824_STAGE DS824_WIND DS824_PRES TD9636_LAT TD9636_LON TD9636_STAGE TD9636_WIND TD9636_PRES TD9635_LAT TD9635_LON TD9635_WIND TD9635_PRES TD9635_ROCI NEUMANN_LAT NEUMANN_LON NEUMANN_CLASS NEUMANN_WIND NEUMANN_PRES MLC_LAT MLC_LON MLC_CLASS MLC_WIND MLC_PRES USA_GUST BOM_GUST BOM_GUST_PER REUNION_GUST REUNION_GUST_PER USA_SEAHGT USA_SEARAD_NE USA_SEARAD_SE USA_SEARAD_SW USA_SEARAD_NW STORM_SPEED STORM_DIR
1963251N16097 1963 81 NI BB NOT_NAMED 1963-09-07 18:00:00 TS 15.5000 97.3000 main 48 48 O________O____ jtwc_io IO081963 15.5000 97.3000 -1 15.5000 97.3000 TC 0 0
1963251N16097 1963 81 NI BB NOT_NAMED 1963-09-07 21:00:00 TS 15.5125 97.3076 main 48 48 P________P____ IO081963 15.5125 97.3076 -1 15.5125 97.3076 TC 1 317
1963251N16097 1963 81 NI BB NOT_NAMED 1963-09-08 00:00:00 TS 15.6000 97.2000 main 58 58 O________O____ jtwc_io IO081963 15.6000 97.2000 -1 15.6000 97.2000 TC 25 5 308
1963251N16097 1963 81 NI BB NOT_NAMED 1963-09-08 03:00:00 TS 15.8221 96.8908 main 82 24 P________PO___ IO081963 15.8249 96.8896 -1 15.8249 96.8896 TC 25 15.8000 96.9000 1 10 308
1963251N16097 1963 81 NI BB NOT_NAMED 1963-09-08 06:00:00 TS 16.2289 96.3668 main 24 0 O________OP___ jtwc_io IO081963 16.2000 96.4000 -1 16.2000 96.4000 TC 25 16.3445 96.2339 1 15 310
1963251N16097 1963 81 NI BB NOT_NAMED 1963-09-08 09:00:00 TS 16.7886 95.7050 main 0 0 P________PP___ IO081963 16.7655 95.7435 -1 16.7655 95.7435 TC 25 16.8503 95.6023 1 16 311
1963251N16097 1963 81 NI BB NOT_NAMED 1963-09-08 12:00:00 TS 17.2936 95.0815 main 0 0 O________OP___ jtwc_io IO081963 17.3000 95.1000 -1 17.3000 95.1000 TC 25 17.2808 95.0443 1 13 308
1963251N16097 1963 81 NI BB NOT_NAMED 1963-09-08 15:00:00 TS 17.5781 94.6547 main 0 0 P________PO___ IO081963 17.5672 94.6820 -1 17.5672 94.6820 TC 25 17.6000 94.6000 1 8 302
1963251N16097 1963 81 NI BB NOT_NAMED 1963-09-08 18:00:00 TS 17.7291 94.3643 main 15 15 O________OP___ jtwc_io IO081963 17.7000 94.4000 -1 17.7000 94.4000 TC 25 17.7872 94.2928 1 5 298
1963251N16097 1963 81 NI BB NOT_NAMED 1963-09-08 21:00:00 TS 17.8319 94.1550 main 31 31 P________PP___ IO081963 17.8073 94.1923 -1 17.8073 94.1923 TC 25 17.8809 94.0802 1 4 296
1963251N16097 1963 81 NI BB NOT_NAMED 1963-09-09 00:00:00 TS 17.9114 93.9675 main 46 46 O________OP___ jtwc_io IO081963 17.9000 94.0000 -1 17.9000 94.0000 TC 25 17.9343 93.9026 1 5 295
1963251N16097 1963 81 NI BB NOT_NAMED 1963-09-09 03:00:00 TS 18.0283 93.7200 main 67 64 P________PO___ IO081963 18.0424 93.7300 -1 18.0424 93.7300 TC 25 18.0000 93.7000 1 6 297
1963251N16097 1963 81 NI BB NOT_NAMED 1963-09-09 06:00:00 TS 18.1873 93.3914 main 85 85 O________OP___ jtwc_io IO081963 18.2000 93.4000 -1 18.2000 93.4000 TC 25 18.1618 93.3741 1 8 295
1963251N16097 1963 81 NI BB NOT_NAMED 1963-09-09 09:00:00 TS 18.3477 93.0051 main 107 99 P________PP___ IO081963 18.3501 93.0000 -1 18.3501 93.0000 TC 25 18.3428 93.0154 1 8 294
1963251N16097 1963 81 NI BB NOT_NAMED 1963-09-09 12:00:00 TS 18.5091 92.6164 main 128 128 O________OP___ jtwc_io IO081963 18.5000 92.6000 -1 18.5000 92.6000 TC 25 18.5274 92.6490 1 8 295
1963251N16097 1963 81 NI BB NOT_NAMED 1963-09-09 15:00:00 TS 18.6666 92.2850 main 151 151 P________PO___ IO081963 18.6499 92.2774 -1 18.6499 92.2774 TC 25 18.7000 92.3000 1 7 297
1963251N16097 1963 81 NI BB NOT_NAMED 1963-09-09 18:00:00 TS 18.8103 92.0023 main 173 170 O________OP___ jtwc_io IO081963 18.8000 92.0000 -1 18.8000 92.0000 TC 25 18.8309 92.0070 1 6 299
1963251N16097 1963 81 NI BB NOT_NAMED 1963-09-09 21:00:00 TS 18.9498 91.7448 main 183 175 P________PP___ IO081963 18.9499 91.7499 -1 18.9499 91.7499 TC 25 18.9496 91.7344 1 6 300
1963251N16097 1963 81 NI BB NOT_NAMED 1963-09-10 00:00:00 TS 19.0895 91.4899 main 183 183 O________OP___ jtwc_io IO081963 19.1000 91.5000 -1 19.1000 91.5000 TC 25 19.0684 91.4696 1 6 299
1963251N16097 1963 81 NI BB NOT_NAMED 1963-09-10 03:00:00 TS 19.2333 91.2050 main 199 192 P________PO___ IO081963 19.2500 91.2075 -1 19.2500 91.2075 TC 25 19.2000 91.2000 1 6 298
1963251N16097 1963 81 NI BB NOT_NAMED 1963-09-10 06:00:00 TS 19.3882 90.9024 main 213 213 O________OP___ jtwc_io IO081963 19.4000 90.9000 -1 19.4000 90.9000 TC 25 19.3646 90.9072 1 6 299
1963251N16097 1963 81 NI BB NOT_NAMED 1963-09-10 09:00:00 TS 19.5424 90.6024 main 230 224 P________PP___ IO081963 19.5424 90.5999 -1 19.5424 90.5999 TC 25 19.5424 90.6075 1 7 299
1963251N16097 1963 81 NI BB NOT_NAMED 1963-09-10 12:00:00 TS 19.7080 90.3014 main 235 210 O________OP___ jtwc_io IO081963 19.7000 90.3000 -1 19.7000 90.3000 TC 25 19.7240 90.3041 1 7 303
1963251N16097 1963 81 NI BB NOT_NAMED 1963-09-10 15:00:00 TS 19.9050 90.0000 main 210 178 P________PO___ IO081963 19.9075 90.0001 -1 19.9075 90.0001 TC 25 19.9000 90.0000 1 7 304
1963251N16097 1963 81 NI BB NOT_NAMED 1963-09-10 18:00:00 TS 20.0842 89.7066 main 178 159 O________OP___ jtwc_io IO081963 20.1000 89.7000 -1 20.1000 89.7000 TC 25 20.0527 89.7199 1 6 298
1963251N16097 1963 81 NI BB NOT_NAMED 1963-09-10 21:00:00 TS 20.1997 89.4171 main 159 145 P________PP___ IO081963 20.1999 89.4073 -1 20.1999 89.4073 TC 25 20.1994 89.4368 1 6 293
1963251N16097 1963 81 NI BB NOT_NAMED 1963-09-11 00:00:00 TS 20.3155 89.1118 main 145 123 O________OP___ jtwc_io IO081963 20.3000 89.1000 -1 20.3000 89.1000 TC 25 20.3464 89.1354 1 7 296
1963251N16097 1963 81 NI BB NOT_NAMED 1963-09-11 03:00:00 TS 20.4949 88.7767 main 123 100 P________PO___ IO081963 20.4924 88.7651 -1 20.4924 88.7651 TC 25 20.5000 88.8000 1 8 300
1963251N16097 1963 81 NI BB NOT_NAMED 1963-09-11 06:00:00 TS 20.6933 88.4051 main 100 80 O________OP___ jtwc_io IO081963 20.7000 88.4000 -1 20.7000 88.4000 TC 25 20.6800 88.4152 1 8 297
1963251N16097 1963 81 NI BB NOT_NAMED 1963-09-11 09:00:00 TS 20.8599 88.0083 main 80 66 P________PP___ IO081963 20.8574 88.0149 -1 20.8574 88.0149 TC 25 20.8650 87.9953 1 8 293
1963251N16097 1963 81 NI BB NOT_NAMED 1963-09-11 12:00:00 TS 21.0141 87.5842 main 66 30 O________OP___ jtwc_io IO081963 21.0000 87.6000 -1 21.0000 87.6000 TC 25 21.0424 87.5527 1 9 291
1963251N16097 1963 81 NI BB NOT_NAMED 1963-09-11 15:00:00 TS 21.1716 87.1383 main 23 0 P________PO___ IO081963 21.1574 87.1575 -1 21.1574 87.1575 TC 25 21.2000 87.1000 1 9 289
1963251N16097 1963 81 NI BB NOT_NAMED 1963-09-11 18:00:00 TS 21.3098 86.6883 main 0 0 O________OP___ jtwc_io IO081963 21.3000 86.7000 -1 21.3000 86.7000 TC 25 21.3293 86.6650 1 9 286
1963251N16097 1963 81 NI BB NOT_NAMED 1963-09-11 21:00:00 TS 21.4172 86.2456 main 0 0 P________PP___ IO081963 21.4073 86.2574 -1 21.4073 86.2574 TC 25 21.4369 86.2221 1 9 283
1963251N16097 1963 81 NI BB NOT_NAMED 1963-09-12 00:00:00 TS 21.5087 85.7894 main 0 0 O________OP___ jtwc_io IO081963 21.5000 85.8000 -1 21.5000 85.8000 TC 25 21.5261 85.7682 1 9 282
1963251N16097 1963 81 NI BB NOT_NAMED 1963-09-12 03:00:00 TS 21.6049 85.3100 main 0 0 P________PO___ IO081963 21.6073 85.3150 -1 21.6073 85.3150 TC 25 21.6000 85.3000 1 9 281
1963251N16097 1963 81 NI BB NOT_NAMED 1963-09-12 06:00:00 TS 21.6897 84.7872 main 0 0 O________OP___ jtwc_io IO081963 21.7000 84.8000 -1 21.7000 84.8000 TC 25 21.6691 84.7615 1 10 278
1963251N16097 1963 81 NI BB NOT_NAMED 1963-09-12 09:00:00 TS 21.7513 84.2241 main 0 0 P________PP___ IO081963 21.7652 84.2275 -1 21.7652 84.2275 TC 25 21.7235 84.2175 1 10 276
1963251N16097 1963 81 NI BB NOT_NAMED 1963-09-12 12:00:00 TS 21.7887 83.7049 main 0 0 O________OP___ jtwc_io IO081963 21.8000 83.7000 -1 21.8000 83.7000 TC 25 21.7660 83.7147 1 9 273
1963251N16097 1963 81 NI BB NOT_NAMED 1963-09-12 15:00:00 TS 21.7999 83.2883 main 0 0 P________PO___ IO081963 21.7999 83.2824 -1 21.7999 83.2824 TC 25 21.8000 83.3000 1 6 271
1963251N16097 1963 81 NI BB NOT_NAMED 1963-09-12 18:00:00 TS 21.7996 83.0131 main 0 0 O________OP___ jtwc_io IO081963 21.8000 83.0000 -1 21.8000 83.0000 TC 25 21.7987 83.0392 1 4 274
1963251N16097 1963 81 NI BB NOT_NAMED 1963-09-12 21:00:00 TS 21.8270 82.8739 main 0 0 P________PP___ IO081963 21.8423 82.8775 -1 21.8423 82.8775 TC 25 21.7963 82.8668 1 2 289
1963251N16097 1963 81 NI BB NOT_NAMED 1963-09-13 00:00:00 TS 21.8736 82.7787 main 0 0 O________OP___ jtwc_io IO081963 21.9000 82.8000 -1 21.9000 82.8000 TC 25 21.8208 82.7360 1 3 289
1963251N16097 1963 81 NI BB NOT_NAMED 1963-09-13 03:00:00 TS 21.9083 82.6149 main 0 0 P________PO___ IO081963 21.9125 82.6223 -1 21.9125 82.6223 TC 25 21.9000 82.6000 1 4 294
1963251N16097 1963 81 NI BB NOT_NAMED 1963-09-13 06:00:00 TS 22.0279 82.4020 main 0 0 O________OP___ jtwc_io IO081963 22.0000 82.4000 -1 22.0000 82.4000 TC 25 22.0836 82.4059 1 6 313
1963251N16097 1963 81 NI BB NOT_NAMED 1963-09-13 09:00:00 TS 22.2966 82.1703 main 0 0 P________PP___ IO081963 22.2850 82.1577 -1 22.2850 82.1577 TC 25 22.3197 82.1954 1 7 322
1963251N16097 1963 81 NI BB NOT_NAMED 1963-09-13 12:00:00 TS 22.5903 81.9207 main 0 0 O________OP___ jtwc_io IO081963 22.6000 81.9000 -1 22.6000 81.9000 TC 25 22.5710 81.9621 1 7 317
1963251N16097 1963 81 NI BB NOT_NAMED 1963-09-13 15:00:00 TS 22.7866 81.6766 main 0 0 P________PO___ IO081963 22.7799 81.6648 -1 22.7799 81.6648 TC 25 22.8000 81.7000 1 6 303
1963251N16097 1963 81 NI BB NOT_NAMED 1963-09-13 18:00:00 TS 22.9112 81.3943 main 0 0 O________OP___ jtwc_io IO081963 22.9000 81.4000 -1 22.9000 81.4000 TC 25 22.9338 81.3830 1 6 291
1963251N16097 1963 81 NI BB NOT_NAMED 1963-09-13 21:00:00 TS 23.0094 81.0472 main 0 0 P________PP___ IO081963 22.9926 81.0499 -1 22.9926 81.0499 TC 25 23.0430 81.0419 1 7 288
1963251N16097 1963 81 NI BB NOT_NAMED 1963-09-14 00:00:00 TS 23.1185 80.7016 main 0 0 O________OP___ jtwc_io IO081963 23.1000 80.7000 -1 23.1000 80.7000 TC 25 23.1556 80.7049 1 6 295
1963251N16097 1963 81 NI BB NOT_NAMED 1963-09-14 03:00:00 TS 23.2849 80.4183 main 0 0 P________PO___ IO081963 23.2774 80.4275 -1 23.2774 80.4275 TC 25 23.3000 80.4000 1 6 309
1963251N16097 1963 81 NI BB NOT_NAMED 1963-09-14 06:00:00 TS 23.5019 80.1826 main 0 0 O________OP___ jtwc_io IO081963 23.5000 80.2000 -1 23.5000 80.2000 TC 25 23.5057 80.1478 1 6 318
1963251N16097 1963 81 NI BB NOT_NAMED 1963-09-14 09:00:00 TS 23.7391 79.9675 main 0 0 P________PP___ IO081963 23.7350 79.9849 -1 23.7350 79.9849 TC 25 23.7472 79.9325 1 6 324
1963251N16097 1963 81 NI BB NOT_NAMED 1963-09-14 12:00:00 TS 24.0051 79.7837 main 0 0 O________OP___ jtwc_io IO081963 24.0000 79.8000 -1 24.0000 79.8000 TC 25 24.0152 79.7510 1 6 331
1963251N16097 1963 81 NI BB NOT_NAMED 1963-09-14 15:00:00 TS 24.2950 79.6233 main 0 0 P________PO___ IO081963 24.2925 79.6350 -1 24.2925 79.6350 TC 25 24.3000 79.6000 1 6 335
1963251N16097 1963 81 NI BB NOT_NAMED 1963-09-14 18:00:00 TS 24.5721 79.4954 main 0 0 O________OP___ jtwc_io IO081963 24.6000 79.5000 -1 24.6000 79.5000 TC 25 24.5164 79.4862 1 6 339
1963251N16097 1963 81 NI BB NOT_NAMED 1963-09-14 21:00:00 TS 24.8374 79.3992 main 0 0 P________PP___ IO081963 24.8775 79.3998 -1 24.8775 79.3998 TC 25 24.7573 79.3979 1 6 344
1963251N16097 1963 81 NI BB NOT_NAMED 1963-09-15 00:00:00 TS 25.1565 79.3036 main 0 0 O________OP___ jtwc_io IO081963 25.2000 79.3000 -1 25.2000 79.3000 TC 25 25.0695 79.3108 1 7 344
1963251N16097 1963 81 NI BB NOT_NAMED 1963-09-15 03:00:00 TS 25.5500 79.1765 main 0 0 P________PO___ IO081963 25.5750 79.1647 -1 25.5750 79.1647 TC 25 25.5000 79.2000 1 10 344
1963251N16097 1963 81 NI BB NOT_NAMED 1963-09-15 06:00:00 TS 26.1173 79.0035 main 0 0 O________OP___ jtwc_io IO081963 26.1000 79.0000 -1 26.1000 79.0000 TC 25 26.1518 79.0105 1 14 346
1963251N16097 1963 81 NI BB NOT_NAMED 1963-09-15 09:00:00 TS 26.8893 78.7988 main 0 0 P________PP___ IO081963 26.8776 78.8004 -1 26.8776 78.8004 TC 25 26.9129 78.7955 1 16 347
1963251N16097 1963 81 NI BB NOT_NAMED 1963-09-15 12:00:00 TS 27.6975 78.5941 main 0 0 O________OP___ jtwc_io IO081963 27.7000 78.6000 -1 27.7000 78.6000 TC 25 27.6926 78.5824 1 15 347
1963251N16097 1963 81 NI BB NOT_NAMED 1963-09-15 15:00:00 TS 28.3683 78.4232 main 0 0 P________PO___ IO081963 28.3524 78.4348 -1 28.3524 78.4348 TC 25 28.4000 78.4000 1 13 348
1963251N16097 1963 81 NI BB NOT_NAMED 1963-09-15 18:00:00 TS 28.9267 78.2883 main 0 0 O________OP___ jtwc_io IO081963 28.9000 78.3000 -1 28.9000 78.3000 TC 25 28.9668 78.2708 1 10 349
1963251N16097 1963 81 NI BB NOT_NAMED 1963-09-15 21:00:00 TS 29.3880 78.1906 main 0 0 P________PP___ IO081963 29.3700 78.1926 -1 29.3700 78.1926 TC 25 29.4119 78.1879 1 9 350
1963251N16097 1963 81 NI BB NOT_NAMED 1963-09-16 00:00:00 TS 29.7881 78.1181 main 0 0 O________OP___ jtwc_io IO081963 29.8000 78.1000 -1 29.8000 78.1000 TC 25 29.7762 78.1361 1 7 354
1963251N16097 1963 81 NI BB NOT_NAMED 1963-09-16 03:00:00 NR 30.1000 78.1000 main 0 __________O___ IO081963 -1 TC 30.1000 78.1000 1 6 0

IBTrACS Databaseについて

本データベースは、米国NOAAが公開する1842年以降の世界の熱帯低気圧のベストトラックデータアーカイブInternational Best Track Archive for Climate Stewardship (IBTrACS)を、ウェブで閲覧しやすい形式に変換したものです。

最終更新日:2021-10-08